Hovedside
METAR-TAF:

METAR-TAF

Lufthavner :

Umeå lufthavn

Umeå, Sverige

breddegrad: 63-48N, lengdegrad: 020-17E, høyde over havet: 7 m

Gjeldene værobservasjon

Denne rapporten ble laget for 28 minutter siden, klokken 03:50 UTC
Vind 6 kt fra Nordvest
Temperatur 0°C
Luftfuktighet 100%
Trykk 996 hPa
Sikt 10 km eller mer
ingen skyer under 1500 m og ingen bygeskyer

METAR: ESNU 240350Z 31006KT CAVOK M00/M00 Q0996

Tid: 06:18 (04:18 UTC)

Varsel

Denne rapporten ble laget for 1 time og 48 minutter siden, klokken 02:30 UTC
Varsel gyldig fra 24. klokken 03 UTC til 24. klokken 12 UTC
Vind 6 kt fra Vest-nordvest
Sikt 10 km eller mer
ingen skyer under 1500 m og ingen bygeskyer

TAF: ESNU 240230Z 2403/2412 30006KT CAVOK

Værobservasjoner og værvarsel for over 4000 flyplasser (METAR- og TAF-rapporter).

Tilgjengelige stasjoner er representert av de røde og gule prikkene på kartet.

Hold musepekeren over prikken for å se navnet på stasjonen.

Klikk så for å se værobservasjoner og -varsler.

For å forandre kartet kan du klikke på den grønne knappen med svart kryss for å zoome inn, på den grønne knappen med strek for å zoome ut, eller på de grønne pilene for å se tilstøtende kart.


METAR-TAF: